Time;durP1;ratioP1;P1;durP2;ratioP2;P2;SDS_P1;SDS_P2;PMS_P1;PMS_P2;Temp;Humidity;BMP_temperature;BMP_pressure;BME280_temperature;BME280_humidity;BME280_pressure;Samples;Min_cycle;Max_cycle;Signal;HPM_P1;HPM_P2
2022/07/21 00:00:53;;;;;;;;;;;26.10;85.70;;;;;;5074695;28;19913;-71
2022/07/21 00:03:18;;;;;;;;;;;26.20;85.70;;;;;;5074597;28;20355;-72
2022/07/21 00:05:44;;;;;;;;;;;26.10;85.70;;;;;;5074580;28;19912;-71
2022/07/21 00:08:09;;;;;;;;;;;26.10;85.70;;;;;;5074545;28;19908;-72
2022/07/21 00:10:35;;;;;;;;;;;26.10;85.70;;;;;;5075099;28;19923;-71
2022/07/21 00:13:00;;;;;;;;;;;26.10;85.70;;;;;;5074328;28;19913;-72
2022/07/21 00:15:26;;;;;;;;;;;26.10;85.70;;;;;;5074685;28;20001;-71
2022/07/21 00:17:52;;;;;;;;;;;26.10;85.70;;;;;;5074691;28;19908;-72
2022/07/21 00:20:18;;;;;;;;;;;26.20;85.80;;;;;;5074344;28;19908;-72
2022/07/21 00:22:44;;;;;;;;;;;26.10;85.70;;;;;;5074189;28;20386;-71
2022/07/21 00:25:11;;;;;;;;;;;26.10;85.70;;;;;;5074560;28;19915;-71
2022/07/21 00:27:36;;;;;;;;;;;26.10;85.70;;;;;;5056626;28;19954;-71
2022/07/21 00:30:05;;;;;;;;;;;26.20;85.80;;;;;;5074445;28;19912;-70
2022/07/21 00:32:30;;;;;;;;;;;26.10;85.80;;;;;;5074300;28;19909;-71
2022/07/21 00:34:56;;;;;;;;;;;26.20;85.90;;;;;;5074119;28;20388;-71
2022/07/21 00:37:23;;;;;;;;;;;26.20;85.80;;;;;;5074415;28;20336;-71
2022/07/21 00:39:52;;;;;;;;;;;26.10;85.80;;;;;;5074358;28;19908;-71
2022/07/21 00:42:24;;;;;;;;;;;26.10;86.00;;;;;;5074312;28;19908;-71
2022/07/21 00:44:50;;;;;;;;;;;26.10;85.80;;;;;;5073915;28;19915;-72
2022/07/21 00:47:19;;;;;;;;;;;26.20;85.90;;;;;;5056189;28;19920;-71
2022/07/21 00:49:45;;;;;;;;;;;26.20;85.80;;;;;;5074257;28;19950;-72
2022/07/21 00:52:10;;;;;;;;;;;26.20;85.90;;;;;;5074232;28;19915;-72
2022/07/21 00:54:36;;;;;;;;;;;26.20;85.90;;;;;;5056147;28;19952;-71
2022/07/21 00:57:01;;;;;;;;;;;26.20;86.00;;;;;;5073959;28;19912;-71
2022/07/21 00:59:28;;;;;;;;;;;26.20;85.90;;;;;;5052673;28;19928;-71
2022/07/21 01:01:54;;;;;;;;;;;26.10;85.90;;;;;;5054392;28;19991;-71
2022/07/21 01:04:19;;;;;;;;;;;26.10;85.90;;;;;;5053777;28;19947;-71
2022/07/21 01:06:44;;;;;;;;;;;26.10;85.90;;;;;;5052778;28;20286;-71
2022/07/21 01:09:10;;;;;;;;;;;26.20;85.90;;;;;;5057182;28;19909;-71
2022/07/21 01:11:36;;;;;;;;;;;26.10;85.90;;;;;;5058209;28;20395;-71
2022/07/21 01:14:01;;;;;;;;;;;26.20;85.90;;;;;;5058232;28;19919;-71
2022/07/21 01:16:27;;;;;;;;;;;26.20;85.90;;;;;;5056852;28;19916;-71
2022/07/21 01:18:53;;;;;;;;;;;26.20;85.90;;;;;;5058058;28;19919;-71
2022/07/21 01:21:31;;;;;;;;;;;26.10;85.80;;;;;;5058009;28;19908;-71
2022/07/21 01:23:56;;;;;;;;;;;26.20;85.90;;;;;;5057931;28;19909;-71
2022/07/21 01:26:22;;;;;;;;;;;26.10;85.90;;;;;;5057907;28;19909;-71
2022/07/21 01:28:47;;;;;;;;;;;26.10;85.90;;;;;;5058162;28;19909;-71
2022/07/21 01:31:13;;;;;;;;;;;26.20;86.00;;;;;;5057841;28;19951;-71
2022/07/21 01:33:38;;;;;;;;;;;26.20;86.00;;;;;;5057400;28;19913;-71
2022/07/21 01:36:04;;;;;;;;;;;26.20;86.00;;;;;;5057450;28;19920;-70
2022/07/21 01:41:29;;;;;;;;;;;26.20;86.00;;;;;;5057601;28;20011;-71
2022/07/21 01:43:58;;;;;;;;;;;26.20;86.00;;;;;;5057339;28;19913;-71
2022/07/21 01:46:25;;;;;;;;;;;26.20;86.00;;;;;;5057911;28;19948;-71
2022/07/21 01:48:51;;;;;;;;;;;26.20;86.00;;;;;;5057460;28;19908;-71
2022/07/21 01:51:16;;;;;;;;;;;26.20;86.00;;;;;;5057217;28;20278;-71
2022/07/21 01:53:42;;;;;;;;;;;26.20;86.60;;;;;;5057181;28;19913;-71
2022/07/21 01:56:07;;;;;;;;;;;26.20;86.10;;;;;;5057845;28;19951;-70
2022/07/21 01:58:33;;;;;;;;;;;26.10;86.00;;;;;;5061653;28;20350;-71
2022/07/21 02:00:58;;;;;;;;;;;26.20;86.00;;;;;;5077137;28;19950;-71
2022/07/21 02:03:24;;;;;;;;;;;26.20;86.10;;;;;;5059366;28;19934;-71
2022/07/21 02:05:50;;;;;;;;;;;26.10;86.00;;;;;;5059321;28;19908;-70
2022/07/21 02:08:15;;;;;;;;;;;26.20;86.10;;;;;;5076910;28;19908;-71
2022/07/21 02:10:41;;;;;;;;;;;26.10;86.00;;;;;;5076901;28;19909;-70
2022/07/21 02:13:06;;;;;;;;;;;26.10;86.00;;;;;;5059055;28;20366;-70
2022/07/21 02:15:32;;;;;;;;;;;26.20;86.10;;;;;;5076771;28;19963;-71
2022/07/21 02:17:58;;;;;;;;;;;26.20;86.10;;;;;;5076992;28;19916;-71
2022/07/21 02:20:23;;;;;;;;;;;26.20;86.10;;;;;;5076013;28;19914;-71
2022/07/21 02:22:49;;;;;;;;;;;26.20;86.10;;;;;;5076837;28;19909;-71
2022/07/21 02:25:15;;;;;;;;;;;26.20;86.10;;;;;;5076866;28;20236;-71
2022/07/21 02:27:41;;;;;;;;;;;26.20;86.10;;;;;;5058904;28;19948;-71
2022/07/21 02:30:07;;;;;;;;;;;26.20;86.10;;;;;;5076839;28;19913;-71
2022/07/21 02:32:32;;;;;;;;;;;26.20;86.10;;;;;;5076740;28;19919;-71
2022/07/21 02:34:58;;;;;;;;;;;26.20;86.10;;;;;;5076407;28;19916;-71
2022/07/21 02:37:23;;;;;;;;;;;26.20;86.10;;;;;;5058706;28;19917;-71
2022/07/21 02:39:49;;;;;;;;;;;26.20;86.10;;;;;;5076657;28;19908;-71
2022/07/21 02:42:15;;;;;;;;;;;26.20;86.10;;;;;;5076263;28;19963;-71
2022/07/21 02:44:40;;;;;;;;;;;26.20;86.10;;;;;;5076543;28;20347;-71
2022/07/21 02:47:06;;;;;;;;;;;26.20;86.20;;;;;;5076170;28;20283;-71
2022/07/21 02:49:31;;;;;;;;;;;26.20;86.10;;;;;;5058513;28;19908;-71
2022/07/21 02:51:56;;;;;;;;;;;26.20;86.10;;;;;;5058398;28;19967;-71
2022/07/21 02:54:22;;;;;;;;;;;26.20;86.10;;;;;;5076030;28;19912;-72
2022/07/21 02:56:47;;;;;;;;;;;26.20;86.20;;;;;;5058401;28;20389;-71
2022/07/21 02:59:13;;;;;;;;;;;26.20;86.10;;;;;;5076061;28;19926;-71
2022/07/21 03:01:38;;;;;;;;;;;26.20;86.20;;;;;;5075899;28;20377;-71
2022/07/21 03:04:04;;;;;;;;;;;26.20;86.10;;;;;;5075821;28;19958;-71
2022/07/21 03:06:29;;;;;;;;;;;26.20;86.10;;;;;;5076105;28;19912;-71
2022/07/21 03:08:55;;;;;;;;;;;26.20;86.10;;;;;;5076041;28;19909;-71
2022/07/21 03:11:20;;;;;;;;;;;26.20;86.10;;;;;;5075984;28;20007;-71
2022/07/21 03:13:46;;;;;;;;;;;26.20;86.20;;;;;;5075684;28;20263;-71
2022/07/21 03:16:11;;;;;;;;;;;26.20;86.10;;;;;;5076151;28;19913;-70
2022/07/21 03:18:37;;;;;;;;;;;26.20;86.20;;;;;;5075815;28;20240;-70
2022/07/21 03:21:02;;;;;;;;;;;26.20;86.20;;;;;;5057960;28;19908;-71
2022/07/21 03:23:28;;;;;;;;;;;26.20;86.20;;;;;;5075763;28;20332;-71
2022/07/21 03:25:54;;;;;;;;;;;26.20;86.20;;;;;;5075350;28;19936;-71
2022/07/21 03:28:19;;;;;;;;;;;26.20;86.20;;;;;;5075957;28;20267;-71
2022/07/21 03:30:45;;;;;;;;;;;26.20;86.20;;;;;;5075207;28;19955;-71
2022/07/21 03:33:10;;;;;;;;;;;26.20;86.20;;;;;;5075359;28;20355;-70
2022/07/21 03:35:36;;;;;;;;;;;26.20;86.20;;;;;;5075110;28;20377;-71
2022/07/21 03:38:02;;;;;;;;;;;26.20;86.20;;;;;;5057400;28;20335;-71
2022/07/21 03:40:29;;;;;;;;;;;26.20;86.20;;;;;;5075261;28;19953;-71
2022/07/21 03:42:55;;;;;;;;;;;26.20;86.20;;;;;;5074981;28;20363;-71
2022/07/21 03:45:21;;;;;;;;;;;26.20;86.20;;;;;;5075015;28;19995;-71
2022/07/21 03:47:47;;;;;;;;;;;26.20;86.20;;;;;;5074967;28;19952;-71
2022/07/21 03:50:13;;;;;;;;;;;26.20;86.20;;;;;;5075070;28;19995;-71
2022/07/21 03:52:39;;;;;;;;;;;26.20;86.20;;;;;;5057217;28;19908;-70
2022/07/21 03:55:14;;;;;;;;;;;26.20;86.20;;;;;;5074603;28;20389;-71
2022/07/21 03:57:48;;;;;;;;;;;26.20;86.20;;;;;;5075159;28;19908;-71
2022/07/21 04:00:15;;;;;;;;;;;26.20;86.20;;;;;;5075154;28;19966;-72
2022/07/21 04:02:43;;;;;;;;;;;26.20;86.20;;;;;;5057011;28;19915;-71
2022/07/21 04:05:10;;;;;;;;;;;26.30;86.30;;;;;;5056573;28;19912;-71
2022/07/21 04:07:36;;;;;;;;;;;26.30;86.30;;;;;;5074780;28;19916;-71
2022/07/21 04:10:02;;;;;;;;;;;26.20;86.20;;;;;;5074808;28;19908;-71
2022/07/21 04:12:28;;;;;;;;;;;26.30;86.30;;;;;;5074499;28;20276;-71
2022/07/21 04:14:54;;;;;;;;;;;26.30;86.30;;;;;;5074568;28;19916;-71
2022/07/21 04:17:20;;;;;;;;;;;26.20;86.20;;;;;;5056816;28;19915;-71
2022/07/21 04:19:45;;;;;;;;;;;26.30;86.30;;;;;;5074885;28;19908;-70
2022/07/21 04:22:11;;;;;;;;;;;26.30;86.40;;;;;;5074514;28;19959;-71
2022/07/21 04:24:36;;;;;;;;;;;26.20;86.30;;;;;;5074480;28;19909;-71
2022/07/21 04:27:02;;;;;;;;;;;26.30;86.30;;;;;;5074401;28;19952;-71
2022/07/21 04:29:28;;;;;;;;;;;26.30;86.40;;;;;;5074813;28;19916;-71
2022/07/21 04:31:54;;;;;;;;;;;26.20;86.30;;;;;;5056418;28;19912;-71
2022/07/21 04:34:19;;;;;;;;;;;26.30;86.40;;;;;;5074196;28;19913;-71
2022/07/21 04:36:45;;;;;;;;;;;26.20;86.30;;;;;;5074012;28;19987;-71
2022/07/21 04:39:10;;;;;;;;;;;26.20;86.30;;;;;;5074076;28;19909;-71
2022/07/21 04:41:36;;;;;;;;;;;26.30;86.40;;;;;;5074517;28;19957;-71
2022/07/21 04:44:01;;;;;;;;;;;26.30;86.40;;;;;;5073818;28;20014;-71
2022/07/21 04:46:27;;;;;;;;;;;26.30;86.40;;;;;;5074094;28;19915;-70
2022/07/21 04:48:52;;;;;;;;;;;26.30;86.50;;;;;;5073976;28;19908;-71
2022/07/21 04:51:17;;;;;;;;;;;26.30;86.40;;;;;;5073950;28;19908;-72
2022/07/21 04:53:43;;;;;;;;;;;26.30;86.40;;;;;;5073774;28;20010;-72
2022/07/21 04:56:08;;;;;;;;;;;26.30;86.40;;;;;;5074138;28;19913;-70
2022/07/21 04:58:34;;;;;;;;;;;26.30;86.40;;;;;;5073516;28;20317;-72
2022/07/21 05:00:59;;;;;;;;;;;26.30;86.40;;;;;;5073654;28;19909;-72
2022/07/21 05:03:25;;;;;;;;;;;26.30;86.40;;;;;;5073803;28;20026;-72
2022/07/21 05:05:50;;;;;;;;;;;26.30;86.40;;;;;;5073790;28;19912;-72
2022/07/21 05:08:16;;;;;;;;;;;26.30;86.50;;;;;;5073634;28;19908;-72
2022/07/21 05:10:41;;;;;;;;;;;26.30;86.40;;;;;;5073519;28;19981;-72
2022/07/21 05:13:07;;;;;;;;;;;26.30;86.40;;;;;;5073462;28;19912;-72
2022/07/21 05:15:32;;;;;;;;;;;26.30;86.40;;;;;;5073569;28;20236;-72
2022/07/21 05:17:58;;;;;;;;;;;26.30;86.90;;;;;;5073513;28;19912;-72
2022/07/21 05:20:23;;;;;;;;;;;26.30;86.40;;;;;;5073436;28;19996;-72
2022/07/21 05:22:49;;;;;;;;;;;26.30;86.40;;;;;;5055553;28;19909;-72
2022/07/21 05:25:14;;;;;;;;;;;26.30;86.40;;;;;;5073576;28;19908;-72
2022/07/21 05:27:39;;;;;;;;;;;26.30;86.40;;;;;;5073039;28;19908;-71
2022/07/21 05:30:05;;;;;;;;;;;26.30;86.40;;;;;;5072937;28;20251;-72
2022/07/21 05:32:31;;;;;;;;;;;26.30;86.40;;;;;;5073559;28;20003;-72
2022/07/21 05:34:56;;;;;;;;;;;26.30;86.40;;;;;;5073016;28;19924;-71
2022/07/21 05:37:22;;;;;;;;;;;26.30;86.40;;;;;;5073420;28;19908;-72
2022/07/21 05:39:47;;;;;;;;;;;26.30;86.40;;;;;;5073412;28;19915;-72
2022/07/21 05:42:13;;;;;;;;;;;26.30;86.50;;;;;;5073195;28;20310;-72
2022/07/21 05:44:38;;;;;;;;;;;26.30;86.50;;;;;;5073268;28;19922;-73
2022/07/21 05:47:04;;;;;;;;;;;26.30;86.50;;;;;;5073054;28;19919;-72
2022/07/21 05:49:29;;;;;;;;;;;26.30;86.50;;;;;;5055273;28;20414;-72
2022/07/21 05:51:54;;;;;;;;;;;26.30;86.50;;;;;;5073237;28;19913;-72
2022/07/21 05:54:20;;;;;;;;;;;26.30;86.40;;;;;;5073193;28;19935;-72
2022/07/21 05:56:45;;;;;;;;;;;26.30;86.50;;;;;;5076781;28;19962;-72
2022/07/21 05:59:11;;;;;;;;;;;26.30;86.50;;;;;;5058841;28;19925;-72
2022/07/21 06:01:36;;;;;;;;;;;26.30;86.50;;;;;;5058982;28;20351;-72
2022/07/21 06:04:02;;;;;;;;;;;26.30;86.50;;;;;;5059057;28;19909;-72
2022/07/21 06:06:27;;;;;;;;;;;26.30;86.50;;;;;;5076487;28;20309;-72
2022/07/21 06:08:53;;;;;;;;;;;26.30;86.50;;;;;;5076218;28;19909;-72
2022/07/21 06:11:19;;;;;;;;;;;26.30;86.40;;;;;;5076595;28;19985;-72
2022/07/21 06:13:45;;;;;;;;;;;26.30;86.50;;;;;;5076548;28;20003;-72
2022/07/21 06:16:11;;;;;;;;;;;26.30;86.50;;;;;;5076169;28;20308;-71
2022/07/21 06:18:36;;;;;;;;;;;26.30;86.50;;;;;;5058210;28;19912;-72
2022/07/21 06:21:03;;;;;;;;;;;26.30;86.50;;;;;;5076715;28;19908;-72
2022/07/21 06:23:29;;;;;;;;;;;26.40;86.60;;;;;;5076375;28;19958;-72
2022/07/21 06:25:55;;;;;;;;;;;26.40;86.60;;;;;;5076207;28;19958;-72
2022/07/21 06:28:20;;;;;;;;;;;26.30;86.50;;;;;;5076293;28;19972;-72
2022/07/21 06:30:46;;;;;;;;;;;26.40;86.60;;;;;;5076458;28;20348;-73
2022/07/21 06:33:12;;;;;;;;;;;26.40;86.50;;;;;;5076042;28;19912;-71
2022/07/21 06:35:38;;;;;;;;;;;26.30;86.50;;;;;;5076322;28;19912;-73
2022/07/21 06:38:03;;;;;;;;;;;26.40;86.60;;;;;;5058261;28;19923;-72
2022/07/21 06:40:29;;;;;;;;;;;26.30;86.50;;;;;;5075812;28;19909;-72
2022/07/21 06:42:55;;;;;;;;;;;26.40;86.60;;;;;;5076601;28;19916;-72
2022/07/21 06:45:21;;;;;;;;;;;26.40;86.50;;;;;;5057995;28;19909;-72
2022/07/21 06:47:47;;;;;;;;;;;26.40;86.60;;;;;;5057752;28;20317;-72
2022/07/21 06:50:12;;;;;;;;;;;26.40;86.60;;;;;;5057833;28;19909;-72
2022/07/21 06:52:38;;;;;;;;;;;26.40;86.60;;;;;;5075986;28;19915;-72
2022/07/21 06:55:04;;;;;;;;;;;26.40;86.60;;;;;;5057905;28;20041;-72
2022/07/21 06:57:30;;;;;;;;;;;26.40;86.60;;;;;;5075734;28;19909;-73
2022/07/21 06:59:55;;;;;;;;;;;26.40;86.60;;;;;;5076040;28;20260;-72
2022/07/21 07:02:21;;;;;;;;;;;26.40;86.60;;;;;;5075683;28;19908;-72
2022/07/21 07:04:46;;;;;;;;;;;26.40;86.60;;;;;;5075665;28;20365;-73
2022/07/21 07:07:12;;;;;;;;;;;26.40;86.70;;;;;;5075377;28;19962;-71
2022/07/21 07:09:37;;;;;;;;;;;26.40;86.70;;;;;;5057681;28;20259;-72
2022/07/21 07:12:04;;;;;;;;;;;26.40;86.70;;;;;;5075819;28;19954;-72
2022/07/21 07:14:33;;;;;;;;;;;26.40;86.70;;;;;;5057553;28;19912;-72
2022/07/21 07:16:59;;;;;;;;;;;26.40;86.70;;;;;;5074866;28;20305;-73
2022/07/21 07:19:25;;;;;;;;;;;26.40;86.60;;;;;;5075032;28;20382;-73
2022/07/21 07:21:51;;;;;;;;;;;26.40;86.70;;;;;;5074930;28;19912;-72
2022/07/21 07:24:16;;;;;;;;;;;26.40;86.70;;;;;;5057144;28;19915;-73
2022/07/21 07:26:42;;;;;;;;;;;26.40;86.70;;;;;;5057358;28;19908;-71
2022/07/21 07:29:08;;;;;;;;;;;26.40;86.70;;;;;;5075271;28;19922;-72
2022/07/21 07:31:34;;;;;;;;;;;26.40;86.70;;;;;;5075116;28;20007;-73
2022/07/21 07:33:59;;;;;;;;;;;26.40;86.70;;;;;;5075088;28;20015;-72
2022/07/21 07:36:25;;;;;;;;;;;26.40;86.70;;;;;;5075036;28;19912;-72
2022/07/21 07:38:51;;;;;;;;;;;26.40;86.70;;;;;;5075064;28;20240;-72
2022/07/21 07:41:17;;;;;;;;;;;26.40;86.80;;;;;;5074990;28;20294;-71
2022/07/21 07:43:43;;;;;;;;;;;26.40;86.80;;;;;;5075271;28;19908;-70
2022/07/21 07:46:10;;;;;;;;;;;26.40;87.30;;;;;;5074740;28;19909;-72
2022/07/21 07:48:36;;;;;;;;;;;26.40;86.80;;;;;;5057113;28;19916;-72
2022/07/21 07:51:02;;;;;;;;;;;26.40;86.80;;;;;;5074517;28;19915;-72
2022/07/21 07:53:28;;;;;;;;;;;26.40;86.80;;;;;;5074750;28;19912;-72
2022/07/21 07:55:53;;;;;;;;;;;26.40;86.80;;;;;;5074625;28;19913;-71
2022/07/21 07:58:19;;;;;;;;;;;26.40;86.80;;;;;;5074624;28;20351;-72
2022/07/21 08:00:44;;;;;;;;;;;26.40;86.70;;;;;;5074621;28;19920;-72
2022/07/21 08:03:10;;;;;;;;;;;26.40;86.80;;;;;;5056512;28;20256;-72
2022/07/21 08:05:35;;;;;;;;;;;26.40;86.80;;;;;;5074015;28;19934;-72
2022/07/21 08:08:01;;;;;;;;;;;26.40;86.80;;;;;;5074229;28;19995;-72
2022/07/21 08:10:26;;;;;;;;;;;26.40;86.80;;;;;;5074520;28;20326;-72
2022/07/21 08:12:51;;;;;;;;;;;26.40;87.30;;;;;;5074416;28;19909;-72
2022/07/21 08:15:17;;;;;;;;;;;26.40;86.80;;;;;;5074063;28;19966;-72
2022/07/21 08:17:42;;;;;;;;;;;26.40;86.80;;;;;;5073261;28;19962;-72
2022/07/21 08:20:09;;;;;;;;;;;26.40;86.80;;;;;;5056394;28;19970;-72
2022/07/21 08:22:35;;;;;;;;;;;26.40;86.90;;;;;;5056399;28;19909;-72
2022/07/21 08:25:00;;;;;;;;;;;26.40;86.90;;;;;;5056331;28;20409;-72
2022/07/21 08:27:26;;;;;;;;;;;26.40;86.80;;;;;;5074068;28;19908;-72
2022/07/21 08:29:52;;;;;;;;;;;26.40;86.80;;;;;;5073808;28;20337;-72
2022/07/21 08:32:18;;;;;;;;;;;26.40;86.90;;;;;;5074342;28;19909;-72
2022/07/21 08:34:44;;;;;;;;;;;26.40;86.90;;;;;;5073721;28;20371;-72
2022/07/21 08:37:09;;;;;;;;;;;26.40;86.80;;;;;;5074110;28;19912;-72
2022/07/21 08:39:35;;;;;;;;;;;26.40;86.80;;;;;;5074147;28;19916;-72
2022/07/21 08:42:01;;;;;;;;;;;26.40;86.90;;;;;;5073830;28;19915;-73
2022/07/21 08:44:26;;;;;;;;;;;26.40;86.90;;;;;;5055918;28;20378;-72
2022/07/21 08:46:52;;;;;;;;;;;26.40;86.90;;;;;;5073615;28;19934;-72
2022/07/21 08:49:25;;;;;;;;;;;26.40;86.90;;;;;;5074257;28;19954;-73
2022/07/21 08:51:51;;;;;;;;;;;26.40;86.80;;;;;;5074235;28;19931;-72
2022/07/21 08:54:20;;;;;;;;;;;26.40;86.90;;;;;;5073620;28;20373;-72
2022/07/21 08:56:46;;;;;;;;;;;26.40;87.00;;;;;;5073837;28;19922;-72
2022/07/21 08:59:11;;;;;;;;;;;26.40;86.90;;;;;;5073384;28;19920;-72
2022/07/21 09:01:37;;;;;;;;;;;26.40;87.20;;;;;;5073422;28;20367;-72
2022/07/21 09:04:18;;;;;;;;;;;26.40;86.90;;;;;;5073682;28;19908;-73
2022/07/21 09:07:13;;;;;;;;;;;26.40;87.00;;;;;;5073454;28;19981;-72
2022/07/21 09:09:39;;;;;;;;;;;26.40;87.00;;;;;;5046811;28;19919;-72
2022/07/21 09:12:05;;;;;;;;;;;26.40;87.00;;;;;;5073698;28;19912;-72
2022/07/21 09:14:32;;;;;;;;;;;26.40;87.00;;;;;;5055311;28;19919;-72
2022/07/21 09:16:59;;;;;;;;;;;26.40;87.00;;;;;;5073328;28;20286;-72
2022/07/21 09:19:25;;;;;;;;;;;26.40;87.00;;;;;;5073232;28;19920;-72
2022/07/21 09:21:52;;;;;;;;;;;26.40;87.00;;;;;;5073408;28;19924;-71
2022/07/21 09:24:18;;;;;;;;;;;26.40;87.10;;;;;;5073044;28;19908;-72
2022/07/21 09:27:10;;;;;;;;;;;26.40;87.10;;;;;;5055551;28;19915;-72
2022/07/21 09:29:58;;;;;;;;;;;26.40;87.10;;;;;;5055297;28;19988;-72
2022/07/21 09:32:28;;;;;;;;;;;26.40;87.10;;;;;;5054148;28;20358;-71
2022/07/21 09:35:00;;;;;;;;;;;26.40;87.10;;;;;;5077199;28;20438;-71
2022/07/21 09:37:25;;;;;;;;;;;26.40;87.10;;;;;;5077429;28;20041;-71
2022/07/21 09:39:52;;;;;;;;;;;26.40;87.20;;;;;;5077372;28;19940;-72
2022/07/21 09:42:19;;;;;;;;;;;26.40;87.10;;;;;;5077542;28;20011;-71
2022/07/21 09:44:47;;;;;;;;;;;26.40;87.20;;;;;;5077852;28;20027;-72
2022/07/21 09:47:14;;;;;;;;;;;26.40;87.20;;;;;;5076901;28;19909;-72
2022/07/21 09:49:40;;;;;;;;;;;26.40;87.20;;;;;;5059200;28;19909;-71
2022/07/21 09:52:19;;;;;;;;;;;26.40;87.20;;;;;;5058526;28;19908;-71
2022/07/21 09:54:44;;;;;;;;;;;26.40;87.20;;;;;;5076930;28;19924;-71
2022/07/21 09:57:10;;;;;;;;;;;26.40;87.20;;;;;;5077061;28;19912;-73
2022/07/21 09:59:36;;;;;;;;;;;26.40;87.20;;;;;;5076966;28;20387;-72
2022/07/21 10:02:01;;;;;;;;;;;26.40;87.20;;;;;;5076942;28;19954;-72
2022/07/21 10:04:28;;;;;;;;;;;26.40;87.10;;;;;;5076952;28;19940;-72
2022/07/21 10:06:55;;;;;;;;;;;26.40;87.20;;;;;;5075893;28;21439;-73
2022/07/21 10:09:21;;;;;;;;;;;26.40;87.20;;;;;;5076868;28;19909;-72
2022/07/21 10:11:46;;;;;;;;;;;26.40;87.20;;;;;;5058516;28;19908;-72
2022/07/21 10:14:12;;;;;;;;;;;26.40;87.20;;;;;;5076851;28;19913;-72
2022/07/21 10:16:37;;;;;;;;;;;26.40;87.30;;;;;;5076658;28;20338;-72
2022/07/21 10:19:26;;;;;;;;;;;26.40;87.30;;;;;;5077028;28;20379;-71
2022/07/21 10:21:57;;;;;;;;;;;26.40;87.30;;;;;;5076172;28;20007;-72
2022/07/21 10:24:26;;;;;;;;;;;26.40;87.30;;;;;;5076126;28;20437;-71
2022/07/21 10:27:11;;;;;;;;;;;26.40;87.30;;;;;;5058166;28;19908;-71
2022/07/21 10:29:49;;;;;;;;;;;26.40;87.40;;;;;;5076113;28;19909;-71
2022/07/21 10:32:16;;;;;;;;;;;26.40;87.40;;;;;;5076172;28;19908;-71
2022/07/21 10:34:42;;;;;;;;;;;26.40;87.40;;;;;;5091801;28;19912;-72
2022/07/21 10:37:08;;;;;;;;;;;26.40;87.40;;;;;;5058408;28;19913;-73
2022/07/21 10:39:34;;;;;;;;;;;26.40;87.40;;;;;;5075789;28;20003;-71
2022/07/21 10:42:01;;;;;;;;;;;26.30;87.30;;;;;;5057344;28;19916;-72
2022/07/21 10:44:27;;;;;;;;;;;26.40;87.40;;;;;;5057872;28;19909;-71
2022/07/21 10:47:05;;;;;;;;;;;26.30;87.40;;;;;;5075801;28;19909;-71
2022/07/21 10:49:44;;;;;;;;;;;26.40;87.40;;;;;;5076006;28;19944;-72
2022/07/21 10:52:38;;;;;;;;;;;26.40;87.50;;;;;;5075853;28;19966;-72
2022/07/21 10:55:10;;;;;;;;;;;26.40;87.40;;;;;;5075603;28;19921;-72
2022/07/21 10:57:42;;;;;;;;;;;26.40;87.40;;;;;;5057260;28;19909;-71
2022/07/21 11:00:21;;;;;;;;;;;26.40;87.50;;;;;;5075790;28;20145;-71
2022/07/21 11:02:54;;;;;;;;;;;26.40;87.50;;;;;;5075444;28;19912;-72
2022/07/21 11:05:20;;;;;;;;;;;26.40;87.50;;;;;;5075442;28;19908;-71
2022/07/21 11:08:05;;;;;;;;;;;26.40;87.50;;;;;;5075527;28;19977;-72
2022/07/21 11:10:31;;;;;;;;;;;26.40;87.50;;;;;;5057670;28;19908;-72
2022/07/21 11:12:58;;;;;;;;;;;26.40;87.50;;;;;;5075235;28;19913;-71
2022/07/21 11:15:42;;;;;;;;;;;26.40;87.50;;;;;;5074977;28;19935;-71
2022/07/21 11:18:07;;;;;;;;;;;26.40;87.50;;;;;;5057467;28;19908;-72
2022/07/21 11:20:33;;;;;;;;;;;26.40;87.50;;;;;;5075184;28;19992;-72
2022/07/21 11:23:02;;;;;;;;;;;26.40;87.50;;;;;;5075301;28;19959;-71
2022/07/21 11:25:33;;;;;;;;;;;26.40;87.50;;;;;;5075279;28;19999;-71
2022/07/21 11:27:58;;;;;;;;;;;26.40;87.50;;;;;;5057277;28;19947;-72
2022/07/21 11:30:24;;;;;;;;;;;26.40;88.10;;;;;;5075089;28;19912;-72
2022/07/21 11:32:49;;;;;;;;;;;26.40;87.60;;;;;;5074996;28;19950;-71
2022/07/21 11:35:15;;;;;;;;;;;26.40;87.50;;;;;;5075097;28;19913;-71
2022/07/21 11:37:42;;;;;;;;;;;26.40;87.50;;;;;;5075174;28;19908;-72
2022/07/21 11:40:09;;;;;;;;;;;26.40;87.50;;;;;;5074609;28;19909;-71
2022/07/21 11:42:35;;;;;;;;;;;26.40;87.50;;;;;;5074931;28;20268;-72
2022/07/21 11:45:01;;;;;;;;;;;26.40;87.50;;;;;;5074741;28;19970;-72
2022/07/21 11:47:27;;;;;;;;;;;26.40;87.60;;;;;;5074748;28;20003;-71
2022/07/21 11:49:53;;;;;;;;;;;26.40;87.60;;;;;;5075027;28;19963;-72
2022/07/21 11:52:23;;;;;;;;;;;26.40;87.60;;;;;;5055980;28;19908;-71
2022/07/21 11:54:51;;;;;;;;;;;26.40;87.60;;;;;;5074331;28;20019;-70
2022/07/21 11:57:17;;;;;;;;;;;26.40;87.60;;;;;;5074328;28;19916;-72
2022/07/21 11:59:43;;;;;;;;;;;26.40;87.60;;;;;;5074409;28;20264;-72
2022/07/21 12:02:11;;;;;;;;;;;26.40;87.60;;;;;;5073937;28;19935;-72
2022/07/21 12:04:38;;;;;;;;;;;26.40;87.60;;;;;;5074509;28;19961;-72
2022/07/21 12:07:04;;;;;;;;;;;26.40;87.60;;;;;;5074255;28;19909;-72
2022/07/21 12:09:30;;;;;;;;;;;26.40;87.60;;;;;;5074227;28;19913;-72
2022/07/21 12:11:56;;;;;;;;;;;26.40;87.60;;;;;;5056350;28;20311;-71
2022/07/21 12:14:37;;;;;;;;;;;26.40;87.60;;;;;;5073545;28;19997;-72
2022/07/21 12:17:03;;;;;;;;;;;26.40;87.60;;;;;;5074438;28;20370;-72
2022/07/21 12:19:28;;;;;;;;;;;26.40;87.70;;;;;;5056532;28;19908;-72
2022/07/21 12:21:54;;;;;;;;;;;26.40;87.70;;;;;;5073998;28;19916;-72
2022/07/21 12:24:20;;;;;;;;;;;26.40;87.70;;;;;;5074064;28;19940;-72
2022/07/21 12:26:46;;;;;;;;;;;26.40;87.70;;;;;;5056284;28;19915;-72
2022/07/21 12:29:28;;;;;;;;;;;26.40;87.70;;;;;;5074315;28;20240;-72
2022/07/21 12:31:53;;;;;;;;;;;26.40;87.70;;;;;;5074189;28;19908;-72
2022/07/21 12:34:19;;;;;;;;;;;26.40;87.70;;;;;;5073884;28;19919;-72
2022/07/21 12:36:45;;;;;;;;;;;26.40;87.70;;;;;;5055951;28;19916;-71
2022/07/21 12:39:55;;;;;;;;;;;26.40;87.70;;;;;;5073943;28;19953;-72
2022/07/21 12:42:00;;;;;;;;;;;26.40;87.70;;;;;;5073149;28;19909;-71
2022/07/21 12:44:26;;;;;;;;;;;26.40;87.70;;;;;;5074012;28;19962;-71
2022/07/21 12:46:52;;;;;;;;;;;26.40;87.70;;;;;;5073536;28;20346;-71
2022/07/21 12:49:17;;;;;;;;;;;26.40;87.70;;;;;;5073301;28;20000;-72
2022/07/21 12:51:54;;;;;;;;;;;26.40;87.70;;;;;;5055980;28;19915;-72
2022/07/21 12:54:19;;;;;;;;;;;26.40;87.70;;;;;;5073782;28;20377;-72
2022/07/21 12:56:45;;;;;;;;;;;26.40;87.70;;;;;;5073881;28;19988;-72
2022/07/21 12:59:14;;;;;;;;;;;26.40;87.70;;;;;;5073570;28;19943;-72
2022/07/21 13:01:40;;;;;;;;;;;26.40;87.60;;;;;;5073593;28;20275;-72
2022/07/21 13:04:05;;;;;;;;;;;26.40;87.60;;;;;;5073608;28;19908;-72
2022/07/21 13:06:31;;;;;;;;;;;26.40;87.70;;;;;;5073257;28;19909;-72
2022/07/21 13:08:56;;;;;;;;;;;26.40;87.70;;;;;;5073656;28;19954;-72
2022/07/21 13:11:22;;;;;;;;;;;26.40;87.70;;;;;;5073297;28;19916;-71
2022/07/21 13:13:48;;;;;;;;;;;26.40;87.70;;;;;;5073292;28;19948;-72
2022/07/21 13:16:14;;;;;;;;;;;26.40;87.70;;;;;;5055487;28;20239;-71
2022/07/21 13:18:40;;;;;;;;;;;26.40;87.70;;;;;;5073294;28;19909;-72
2022/07/21 13:21:06;;;;;;;;;;;26.40;87.70;;;;;;5073346;28;20347;-72
2022/07/21 13:23:31;;;;;;;;;;;26.40;87.70;;;;;;5073522;28;19915;-72
2022/07/21 13:25:57;;;;;;;;;;;26.40;87.70;;;;;;5073801;28;20001;-72
2022/07/21 13:28:22;;;;;;;;;;;26.40;87.70;;;;;;5073061;28;19909;-71
2022/07/21 13:30:48;;;;;;;;;;;26.40;87.70;;;;;;5073317;28;19908;-73
2022/07/21 13:33:14;;;;;;;;;;;26.40;87.70;;;;;;5073484;28;19913;-72
2022/07/21 13:35:39;;;;;;;;;;;26.40;87.70;;;;;;5073163;28;19947;-72
2022/07/21 13:38:05;;;;;;;;;;;26.40;87.70;;;;;;5073509;28;19956;-72
2022/07/21 13:40:30;;;;;;;;;;;26.40;87.70;;;;;;5073130;28;19909;-72
2022/07/21 13:42:56;;;;;;;;;;;26.40;87.70;;;;;;5073137;28;19909;-72
2022/07/21 13:45:21;;;;;;;;;;;26.40;87.70;;;;;;5073670;28;19908;-73
2022/07/21 13:47:47;;;;;;;;;;;26.40;87.70;;;;;;5073267;28;19909;-72
2022/07/21 13:50:13;;;;;;;;;;;26.40;87.70;;;;;;5072877;28;19909;-72
2022/07/21 13:52:40;;;;;;;;;;;26.40;87.70;;;;;;5055258;28;19908;-72
2022/07/21 13:55:07;;;;;;;;;;;26.40;87.70;;;;;;5073090;28;19913;-72
2022/07/21 13:57:32;;;;;;;;;;;26.40;87.80;;;;;;5055167;28;20073;-71
2022/07/21 13:59:58;;;;;;;;;;;26.40;87.70;;;;;;5054507;28;19960;-71
2022/07/21 14:02:23;;;;;;;;;;;26.40;87.70;;;;;;5072676;28;19912;-70
2022/07/21 14:04:48;;;;;;;;;;;26.40;87.80;;;;;;5073126;28;19948;-71
2022/07/21 14:07:14;;;;;;;;;;;26.40;87.70;;;;;;5073029;28;20254;-72
2022/07/21 14:09:40;;;;;;;;;;;26.40;87.70;;;;;;5073001;28;19908;-71
2022/07/21 14:12:06;;;;;;;;;;;26.40;87.70;;;;;;5072936;28;19916;-71
2022/07/21 14:14:31;;;;;;;;;;;26.40;87.80;;;;;;5072855;28;19916;-71
2022/07/21 14:16:57;;;;;;;;;;;26.40;87.80;;;;;;5075254;28;19913;-71